sensor_id;sensor_type;location;lat;lon;timestamp;temperature;humidity
77592;DHT22;66747;46.884;17.430;2023-01-09T00:01:01;7.94;84.46
77592;DHT22;66747;46.884;17.430;2023-01-09T00:03:28;7.97;84.36
77592;DHT22;66747;46.884;17.430;2023-01-09T00:05:56;7.95;84.30
77592;DHT22;66747;46.884;17.430;2023-01-09T00:08:23;7.94;84.47
77592;DHT22;66747;46.884;17.430;2023-01-09T00:10:50;7.95;84.43
77592;DHT22;66747;46.884;17.430;2023-01-09T00:13:17;7.94;84.49
77592;DHT22;66747;46.884;17.430;2023-01-09T00:15:44;7.94;84.50
77592;DHT22;66747;46.884;17.430;2023-01-09T00:18:13;7.97;84.26
77592;DHT22;66747;46.884;17.430;2023-01-09T00:20:40;7.95;83.82
77592;DHT22;66747;46.884;17.430;2023-01-09T00:23:07;7.97;84.19
77592;DHT22;66747;46.884;17.430;2023-01-09T00:25:34;7.98;84.06
77592;DHT22;66747;46.884;17.430;2023-01-09T00:28:02;7.99;84.03
77592;DHT22;66747;46.884;17.430;2023-01-09T00:30:30;7.99;84.12
77592;DHT22;66747;46.884;17.430;2023-01-09T00:32:57;8.02;83.84
77592;DHT22;66747;46.884;17.430;2023-01-09T00:35:27;8.02;83.61
77592;DHT22;66747;46.884;17.430;2023-01-09T00:37:54;8.01;83.99
77592;DHT22;66747;46.884;17.430;2023-01-09T00:40:21;8.04;83.83
77592;DHT22;66747;46.884;17.430;2023-01-09T00:42:51;8.04;83.93
77592;DHT22;66747;46.884;17.430;2023-01-09T00:45:23;8.04;83.58
77592;DHT22;66747;46.884;17.430;2023-01-09T00:47:58;8.04;83.41
77592;DHT22;66747;46.884;17.430;2023-01-09T00:50:30;8.06;83.66
77592;DHT22;66747;46.884;17.430;2023-01-09T00:53:00;8.09;83.49
77592;DHT22;66747;46.884;17.430;2023-01-09T00:55:28;8.11;83.51
77592;DHT22;66747;46.884;17.430;2023-01-09T00:57:55;8.09;83.61
77592;DHT22;66747;46.884;17.430;2023-01-09T01:00:23;8.08;83.67
77592;DHT22;66747;46.884;17.430;2023-01-09T01:02:50;8.08;83.58
77592;DHT22;66747;46.884;17.430;2023-01-09T01:05:17;8.09;83.80
77592;DHT22;66747;46.884;17.430;2023-01-09T01:08:10;8.08;83.93
77592;DHT22;66747;46.884;17.430;2023-01-09T01:10:37;8.09;83.79
77592;DHT22;66747;46.884;17.430;2023-01-09T01:13:05;8.09;83.76
77592;DHT22;66747;46.884;17.430;2023-01-09T01:15:32;8.09;83.87
77592;DHT22;66747;46.884;17.430;2023-01-09T01:17:59;8.08;83.85
77592;DHT22;66747;46.884;17.430;2023-01-09T01:20:26;8.06;84.21
77592;DHT22;66747;46.884;17.430;2023-01-09T01:22:53;8.08;84.03
77592;DHT22;66747;46.884;17.430;2023-01-09T01:25:22;8.05;84.20
77592;DHT22;66747;46.884;17.430;2023-01-09T01:27:49;8.08;83.79
77592;DHT22;66747;46.884;17.430;2023-01-09T01:30:17;8.06;84.55
77592;DHT22;66747;46.884;17.430;2023-01-09T01:32:45;8.05;83.76
77592;DHT22;66747;46.884;17.430;2023-01-09T01:35:12;8.09;84.35
77592;DHT22;66747;46.884;17.430;2023-01-09T01:37:39;8.06;84.29
77592;DHT22;66747;46.884;17.430;2023-01-09T01:40:08;8.05;84.61
77592;DHT22;66747;46.884;17.430;2023-01-09T01:42:44;8.04;84.30
77592;DHT22;66747;46.884;17.430;2023-01-09T01:45:13;8.06;84.41
77592;DHT22;66747;46.884;17.430;2023-01-09T01:47:47;8.05;84.43
77592;DHT22;66747;46.884;17.430;2023-01-09T01:50:22;8.05;84.30
77592;DHT22;66747;46.884;17.430;2023-01-09T01:53:02;8.05;84.45
77592;DHT22;66747;46.884;17.430;2023-01-09T01:55:33;8.06;83.91
77592;DHT22;66747;46.884;17.430;2023-01-09T01:58:04;8.08;84.54
77592;DHT22;66747;46.884;17.430;2023-01-09T02:00:37;8.09;84.49
77592;DHT22;66747;46.884;17.430;2023-01-09T02:03:05;8.08;84.39
77592;DHT22;66747;46.884;17.430;2023-01-09T02:05:35;8.08;84.55
77592;DHT22;66747;46.884;17.430;2023-01-09T02:08:04;8.06;84.68
77592;DHT22;66747;46.884;17.430;2023-01-09T02:10:32;8.06;84.08
77592;DHT22;66747;46.884;17.430;2023-01-09T02:13:02;8.09;84.52
77592;DHT22;66747;46.884;17.430;2023-01-09T02:15:33;8.08;84.35
77592;DHT22;66747;46.884;17.430;2023-01-09T02:18:23;8.08;84.62
77592;DHT22;66747;46.884;17.430;2023-01-09T02:20:59;8.08;84.30
77592;DHT22;66747;46.884;17.430;2023-01-09T02:23:53;8.09;84.59
77592;DHT22;66747;46.884;17.430;2023-01-09T02:26:37;8.08;84.42
77592;DHT22;66747;46.884;17.430;2023-01-09T02:29:38;8.06;84.58
77592;DHT22;66747;46.884;17.430;2023-01-09T02:32:18;8.08;84.81
77592;DHT22;66747;46.884;17.430;2023-01-09T02:34:53;8.06;84.81
77592;DHT22;66747;46.884;17.430;2023-01-09T02:37:28;8.02;84.94
77592;DHT22;66747;46.884;17.430;2023-01-09T02:40:03;8.04;84.96
77592;DHT22;66747;46.884;17.430;2023-01-09T02:42:36;8.04;84.83
77592;DHT22;66747;46.884;17.430;2023-01-09T02:45:05;8.05;84.92
77592;DHT22;66747;46.884;17.430;2023-01-09T02:47:39;8.04;85.19
77592;DHT22;66747;46.884;17.430;2023-01-09T02:50:10;8.04;85.19
77592;DHT22;66747;46.884;17.430;2023-01-09T02:55:49;8.04;84.84
77592;DHT22;66747;46.884;17.430;2023-01-09T02:58:27;8.05;84.68
77592;DHT22;66747;46.884;17.430;2023-01-09T03:01:07;8.02;84.71
77592;DHT22;66747;46.884;17.430;2023-01-09T03:03:46;8.04;84.68
77592;DHT22;66747;46.884;17.430;2023-01-09T03:06:20;8.04;84.06
77592;DHT22;66747;46.884;17.430;2023-01-09T03:08:51;8.05;83.88
77592;DHT22;66747;46.884;17.430;2023-01-09T03:11:19;8.05;83.79
77592;DHT22;66747;46.884;17.430;2023-01-09T03:13:57;8.06;83.32
77592;DHT22;66747;46.884;17.430;2023-01-09T03:16:31;8.06;83.13
77592;DHT22;66747;46.884;17.430;2023-01-09T03:19:00;8.06;83.36
77592;DHT22;66747;46.884;17.430;2023-01-09T03:21:30;8.08;83.40
77592;DHT22;66747;46.884;17.430;2023-01-09T03:23:59;8.04;83.22
77592;DHT22;66747;46.884;17.430;2023-01-09T03:26:28;8.06;83.02
77592;DHT22;66747;46.884;17.430;2023-01-09T03:28:55;8.06;82.87
77592;DHT22;66747;46.884;17.430;2023-01-09T03:31:23;8.06;82.96
77592;DHT22;66747;46.884;17.430;2023-01-09T03:33:50;8.06;82.66
77592;DHT22;66747;46.884;17.430;2023-01-09T03:36:20;8.08;82.81
77592;DHT22;66747;46.884;17.430;2023-01-09T03:38:48;8.04;83.17
77592;DHT22;66747;46.884;17.430;2023-01-09T03:41:15;8.06;82.82
77592;DHT22;66747;46.884;17.430;2023-01-09T03:43:42;8.05;83.14
77592;DHT22;66747;46.884;17.430;2023-01-09T03:46:09;8.05;82.96
77592;DHT22;66747;46.884;17.430;2023-01-09T03:48:37;8.08;82.84
77592;DHT22;66747;46.884;17.430;2023-01-09T03:51:04;8.06;82.72
77592;DHT22;66747;46.884;17.430;2023-01-09T03:53:33;8.06;82.90
77592;DHT22;66747;46.884;17.430;2023-01-09T03:56:00;8.06;82.84
77592;DHT22;66747;46.884;17.430;2023-01-09T03:58:27;8.06;82.62
77592;DHT22;66747;46.884;17.430;2023-01-09T04:00:57;8.09;82.86
77592;DHT22;66747;46.884;17.430;2023-01-09T04:03:25;8.11;82.34
77592;DHT22;66747;46.884;17.430;2023-01-09T04:05:52;8.12;82.34
77592;DHT22;66747;46.884;17.430;2023-01-09T04:08:20;8.11;82.65
77592;DHT22;66747;46.884;17.430;2023-01-09T04:10:49;8.11;82.36
77592;DHT22;66747;46.884;17.430;2023-01-09T04:13:17;8.12;82.34
77592;DHT22;66747;46.884;17.430;2023-01-09T04:15:44;8.11;82.40
77592;DHT22;66747;46.884;17.430;2023-01-09T04:18:11;8.12;82.49
77592;DHT22;66747;46.884;17.430;2023-01-09T04:20:38;8.11;82.30
77592;DHT22;66747;46.884;17.430;2023-01-09T04:23:06;8.08;82.49
77592;DHT22;66747;46.884;17.430;2023-01-09T04:25:33;8.12;82.16
77592;DHT22;66747;46.884;17.430;2023-01-09T04:28:02;8.14;82.18
77592;DHT22;66747;46.884;17.430;2023-01-09T04:30:29;8.09;81.99
77592;DHT22;66747;46.884;17.430;2023-01-09T04:32:56;8.12;81.94
77592;DHT22;66747;46.884;17.430;2023-01-09T04:35:23;8.12;81.85
77592;DHT22;66747;46.884;17.430;2023-01-09T04:37:51;8.11;82.36
77592;DHT22;66747;46.884;17.430;2023-01-09T04:40:18;8.09;82.17
77592;DHT22;66747;46.884;17.430;2023-01-09T04:42:45;8.09;82.25
77592;DHT22;66747;46.884;17.430;2023-01-09T04:45:14;8.09;82.19
77592;DHT22;66747;46.884;17.430;2023-01-09T04:47:43;8.08;82.33
77592;DHT22;66747;46.884;17.430;2023-01-09T04:50:11;8.08;82.15
77592;DHT22;66747;46.884;17.430;2023-01-09T04:52:38;8.11;82.18
77592;DHT22;66747;46.884;17.430;2023-01-09T04:55:06;8.08;82.38
77592;DHT22;66747;46.884;17.430;2023-01-09T04:57:34;8.06;82.63
77592;DHT22;66747;46.884;17.430;2023-01-09T05:00:03;8.06;82.95
77592;DHT22;66747;46.884;17.430;2023-01-09T05:02:32;8.08;82.97
77592;DHT22;66747;46.884;17.430;2023-01-09T05:04:59;8.06;83.00
77592;DHT22;66747;46.884;17.430;2023-01-09T05:07:27;8.02;83.33
77592;DHT22;66747;46.884;17.430;2023-01-09T05:09:54;8.04;83.07
77592;DHT22;66747;46.884;17.430;2023-01-09T05:12:21;8.04;83.25
77592;DHT22;66747;46.884;17.430;2023-01-09T05:14:48;8.02;83.37
77592;DHT22;66747;46.884;17.430;2023-01-09T05:17:15;8.01;83.42
77592;DHT22;66747;46.884;17.430;2023-01-09T05:19:44;8.01;83.73
77592;DHT22;66747;46.884;17.430;2023-01-09T05:22:11;7.98;83.59
77592;DHT22;66747;46.884;17.430;2023-01-09T05:24:38;7.98;83.61
77592;DHT22;66747;46.884;17.430;2023-01-09T05:27:05;7.98;83.66
77592;DHT22;66747;46.884;17.430;2023-01-09T05:29:33;7.95;83.95
77592;DHT22;66747;46.884;17.430;2023-01-09T05:32:00;7.97;84.18
77592;DHT22;66747;46.884;17.430;2023-01-09T05:34:28;7.94;84.56
77592;DHT22;66747;46.884;17.430;2023-01-09T05:36:56;7.95;84.57
77592;DHT22;66747;46.884;17.430;2023-01-09T05:39:23;7.93;84.56
77592;DHT22;66747;46.884;17.430;2023-01-09T05:41:51;7.91;84.81
77592;DHT22;66747;46.884;17.430;2023-01-09T05:44:18;7.90;84.75
77592;DHT22;66747;46.884;17.430;2023-01-09T05:46:45;7.90;84.57
77592;DHT22;66747;46.884;17.430;2023-01-09T05:49:12;7.88;84.63
77592;DHT22;66747;46.884;17.430;2023-01-09T05:51:39;7.87;84.70
77592;DHT22;66747;46.884;17.430;2023-01-09T05:54:07;7.90;85.22
77592;DHT22;66747;46.884;17.430;2023-01-09T05:56:35;7.88;84.87
77592;DHT22;66747;46.884;17.430;2023-01-09T05:59:02;7.87;85.30
77592;DHT22;66747;46.884;17.430;2023-01-09T06:01:29;7.88;85.09
77592;DHT22;66747;46.884;17.430;2023-01-09T06:03:57;7.88;85.14
77592;DHT22;66747;46.884;17.430;2023-01-09T06:06:24;7.84;85.38
77592;DHT22;66747;46.884;17.430;2023-01-09T06:08:52;7.87;85.23
77592;DHT22;66747;46.884;17.430;2023-01-09T06:11:20;7.85;85.62
77592;DHT22;66747;46.884;17.430;2023-01-09T06:13:48;7.84;85.40
77592;DHT22;66747;46.884;17.430;2023-01-09T06:16:15;7.84;85.33
77592;DHT22;66747;46.884;17.430;2023-01-09T06:18:42;7.87;85.60
77592;DHT22;66747;46.884;17.430;2023-01-09T06:21:09;7.87;85.46
77592;DHT22;66747;46.884;17.430;2023-01-09T06:23:36;7.84;85.40
77592;DHT22;66747;46.884;17.430;2023-01-09T06:26:03;7.84;85.69
77592;DHT22;66747;46.884;17.430;2023-01-09T06:28:32;7.84;85.85
77592;DHT22;66747;46.884;17.430;2023-01-09T06:31:00;7.84;85.98
77592;DHT22;66747;46.884;17.430;2023-01-09T06:33:27;7.85;86.18
77592;DHT22;66747;46.884;17.430;2023-01-09T06:35:54;7.85;86.29
77592;DHT22;66747;46.884;17.430;2023-01-09T06:38:22;7.83;86.05
77592;DHT22;66747;46.884;17.430;2023-01-09T06:40:49;7.85;86.01
77592;DHT22;66747;46.884;17.430;2023-01-09T06:43:17;7.84;86.01
77592;DHT22;66747;46.884;17.430;2023-01-09T06:45:45;7.85;85.92
77592;DHT22;66747;46.884;17.430;2023-01-09T06:48:12;7.80;86.06
77592;DHT22;66747;46.884;17.430;2023-01-09T06:50:40;7.81;86.25
77592;DHT22;66747;46.884;17.430;2023-01-09T06:53:07;7.81;86.24
77592;DHT22;66747;46.884;17.430;2023-01-09T06:55:35;7.81;86.10
77592;DHT22;66747;46.884;17.430;2023-01-09T06:58:02;7.83;86.11
77592;DHT22;66747;46.884;17.430;2023-01-09T07:00:29;7.83;86.02
77592;DHT22;66747;46.884;17.430;2023-01-09T07:02:59;7.83;86.14
77592;DHT22;66747;46.884;17.430;2023-01-09T07:05:26;7.80;86.07
77592;DHT22;66747;46.884;17.430;2023-01-09T07:07:53;7.81;86.18
77592;DHT22;66747;46.884;17.430;2023-01-09T07:10:21;7.83;86.27
77592;DHT22;66747;46.884;17.430;2023-01-09T07:12:48;7.80;86.06
77592;DHT22;66747;46.884;17.430;2023-01-09T07:15:16;7.81;86.04
77592;DHT22;66747;46.884;17.430;2023-01-09T07:17:43;7.80;86.29
77592;DHT22;66747;46.884;17.430;2023-01-09T07:20:12;7.80;86.35
77592;DHT22;66747;46.884;17.430;2023-01-09T07:22:39;7.81;86.00
77592;DHT22;66747;46.884;17.430;2023-01-09T07:25:07;7.83;86.41
77592;DHT22;66747;46.884;17.430;2023-01-09T07:27:35;7.81;86.50
77592;DHT22;66747;46.884;17.430;2023-01-09T07:30:02;7.84;86.66
77592;DHT22;66747;46.884;17.430;2023-01-09T07:32:30;7.81;86.24
77592;DHT22;66747;46.884;17.430;2023-01-09T07:34:58;7.84;86.66
77592;DHT22;66747;46.884;17.430;2023-01-09T07:37:27;7.85;86.70
77592;DHT22;66747;46.884;17.430;2023-01-09T07:39:54;7.85;86.74
77592;DHT22;66747;46.884;17.430;2023-01-09T07:42:21;7.87;86.81
77592;DHT22;66747;46.884;17.430;2023-01-09T07:44:49;7.88;86.77
77592;DHT22;66747;46.884;17.430;2023-01-09T07:47:16;7.87;86.64
77592;DHT22;66747;46.884;17.430;2023-01-09T07:49:44;7.85;86.97
77592;DHT22;66747;46.884;17.430;2023-01-09T07:52:11;7.87;86.77
77592;DHT22;66747;46.884;17.430;2023-01-09T07:54:40;7.88;87.06
77592;DHT22;66747;46.884;17.430;2023-01-09T07:57:07;7.88;86.48
77592;DHT22;66747;46.884;17.430;2023-01-09T07:59:34;7.88;85.70
77592;DHT22;66747;46.884;17.430;2023-01-09T08:02:02;7.88;85.62
77592;DHT22;66747;46.884;17.430;2023-01-09T08:04:31;7.90;85.72
77592;DHT22;66747;46.884;17.430;2023-01-09T08:06:59;7.88;86.22
77592;DHT22;66747;46.884;17.430;2023-01-09T08:09:26;7.91;85.56
77592;DHT22;66747;46.884;17.430;2023-01-09T08:11:54;7.88;85.53
77592;DHT22;66747;46.884;17.430;2023-01-09T08:14:23;7.90;86.27
77592;DHT22;66747;46.884;17.430;2023-01-09T08:16:51;7.91;86.53
77592;DHT22;66747;46.884;17.430;2023-01-09T08:19:18;7.91;85.90
77592;DHT22;66747;46.884;17.430;2023-01-09T08:21:45;7.93;86.37
77592;DHT22;66747;46.884;17.430;2023-01-09T08:24:12;7.93;86.45
77592;DHT22;66747;46.884;17.430;2023-01-09T08:26:39;7.94;85.60
77592;DHT22;66747;46.884;17.430;2023-01-09T08:29:09;7.94;85.77
77592;DHT22;66747;46.884;17.430;2023-01-09T08:31:36;7.91;85.52
77592;DHT22;66747;46.884;17.430;2023-01-09T08:34:03;7.93;86.33
77592;DHT22;66747;46.884;17.430;2023-01-09T08:36:30;7.94;85.66
77592;DHT22;66747;46.884;17.430;2023-01-09T08:38:58;7.91;85.55
77592;DHT22;66747;46.884;17.430;2023-01-09T08:41:26;7.94;85.55
77592;DHT22;66747;46.884;17.430;2023-01-09T08:44:13;7.91;86.13
77592;DHT22;66747;46.884;17.430;2023-01-09T08:46:58;7.93;86.62
77592;DHT22;66747;46.884;17.430;2023-01-09T08:49:32;7.94;85.52
77592;DHT22;66747;46.884;17.430;2023-01-09T08:51:59;7.94;85.22
77592;DHT22;66747;46.884;17.430;2023-01-09T08:54:27;7.94;86.07
77592;DHT22;66747;46.884;17.430;2023-01-09T08:56:56;7.94;86.48
77592;DHT22;66747;46.884;17.430;2023-01-09T08:59:25;7.97;86.65
77592;DHT22;66747;46.884;17.430;2023-01-09T09:01:52;7.97;86.55
77592;DHT22;66747;46.884;17.430;2023-01-09T09:04:20;7.95;85.89
77592;DHT22;66747;46.884;17.430;2023-01-09T09:06:47;7.95;85.99
77592;DHT22;66747;46.884;17.430;2023-01-09T09:09:15;7.97;85.59
77592;DHT22;66747;46.884;17.430;2023-01-09T09:11:42;7.97;85.68
77592;DHT22;66747;46.884;17.430;2023-01-09T09:14:09;7.98;86.02
77592;DHT22;66747;46.884;17.430;2023-01-09T09:16:56;7.97;86.26
77592;DHT22;66747;46.884;17.430;2023-01-09T09:19:26;7.98;86.57
77592;DHT22;66747;46.884;17.430;2023-01-09T09:21:53;7.98;86.49
77592;DHT22;66747;46.884;17.430;2023-01-09T09:24:21;7.98;86.40
77592;DHT22;66747;46.884;17.430;2023-01-09T09:26:48;7.98;86.35
77592;DHT22;66747;46.884;17.430;2023-01-09T09:29:15;8.01;86.45
77592;DHT22;66747;46.884;17.430;2023-01-09T09:31:43;7.97;86.06
77592;DHT22;66747;46.884;17.430;2023-01-09T09:34:11;8.01;85.16
77592;DHT22;66747;46.884;17.430;2023-01-09T09:36:39;8.01;85.15
77592;DHT22;66747;46.884;17.430;2023-01-09T09:39:06;7.99;84.96
77592;DHT22;66747;46.884;17.430;2023-01-09T09:42:05;8.01;85.06
77592;DHT22;66747;46.884;17.430;2023-01-09T09:45:07;8.01;85.08
77592;DHT22;66747;46.884;17.430;2023-01-09T09:47:47;8.01;85.06
77592;DHT22;66747;46.884;17.430;2023-01-09T09:50:31;8.02;85.95
77592;DHT22;66747;46.884;17.430;2023-01-09T09:53:06;8.01;85.28
77592;DHT22;66747;46.884;17.430;2023-01-09T09:55:37;8.01;86.30
77592;DHT22;66747;46.884;17.430;2023-01-09T09:58:11;8.02;85.37
77592;DHT22;66747;46.884;17.430;2023-01-09T10:00:42;8.02;85.46
77592;DHT22;66747;46.884;17.430;2023-01-09T10:03:12;8.04;84.75
77592;DHT22;66747;46.884;17.430;2023-01-09T10:05:53;8.04;84.99
77592;DHT22;66747;46.884;17.430;2023-01-09T10:08:29;8.01;84.60
77592;DHT22;66747;46.884;17.430;2023-01-09T10:10:58;8.01;85.47
77592;DHT22;66747;46.884;17.430;2023-01-09T10:13:25;8.04;85.95
77592;DHT22;66747;46.884;17.430;2023-01-09T10:16:22;8.04;86.12
77592;DHT22;66747;46.884;17.430;2023-01-09T10:18:59;8.02;86.95
77592;DHT22;66747;46.884;17.430;2023-01-09T10:21:32;8.04;86.91
77592;DHT22;66747;46.884;17.430;2023-01-09T10:24:10;8.01;85.82
77592;DHT22;66747;46.884;17.430;2023-01-09T10:26:43;8.02;85.67
77592;DHT22;66747;46.884;17.430;2023-01-09T10:29:25;8.02;84.90
77592;DHT22;66747;46.884;17.430;2023-01-09T10:32:08;8.04;84.95
77592;DHT22;66747;46.884;17.430;2023-01-09T10:34:45;8.04;85.39
77592;DHT22;66747;46.884;17.430;2023-01-09T10:37:20;8.06;85.30
77592;DHT22;66747;46.884;17.430;2023-01-09T10:39:53;8.05;85.64
77592;DHT22;66747;46.884;17.430;2023-01-09T10:42:25;8.06;86.29
77592;DHT22;66747;46.884;17.430;2023-01-09T10:45:01;8.09;86.76
77592;DHT22;66747;46.884;17.430;2023-01-09T10:47:31;8.08;86.63
77592;DHT22;66747;46.884;17.430;2023-01-09T10:50:05;8.09;86.43
77592;DHT22;66747;46.884;17.430;2023-01-09T10:52:41;8.14;86.12
77592;DHT22;66747;46.884;17.430;2023-01-09T10:55:17;8.14;86.26
77592;DHT22;66747;46.884;17.430;2023-01-09T10:57:52;8.12;86.26
77592;DHT22;66747;46.884;17.430;2023-01-09T11:00:21;8.14;86.19
77592;DHT22;66747;46.884;17.430;2023-01-09T11:02:50;8.15;86.28
77592;DHT22;66747;46.884;17.430;2023-01-09T11:05:19;8.14;85.82
77592;DHT22;66747;46.884;17.430;2023-01-09T11:07:52;8.16;85.98
77592;DHT22;66747;46.884;17.430;2023-01-09T11:10:21;8.15;85.44
77592;DHT22;66747;46.884;17.430;2023-01-09T11:12:48;8.16;85.98
77592;DHT22;66747;46.884;17.430;2023-01-09T11:15:24;8.18;85.89
77592;DHT22;66747;46.884;17.430;2023-01-09T11:18:16;8.21;85.14
77592;DHT22;66747;46.884;17.430;2023-01-09T11:20:44;8.20;85.45
77592;DHT22;66747;46.884;17.430;2023-01-09T11:23:40;8.22;85.21
77592;DHT22;66747;46.884;17.430;2023-01-09T11:26:21;8.24;85.04
77592;DHT22;66747;46.884;17.430;2023-01-09T11:29:05;8.26;84.80
77592;DHT22;66747;46.884;17.430;2023-01-09T11:31:33;8.26;85.38
77592;DHT22;66747;46.884;17.430;2023-01-09T11:34:00;8.28;85.75
77592;DHT22;66747;46.884;17.430;2023-01-09T11:36:28;8.26;84.62
77592;DHT22;66747;46.884;17.430;2023-01-09T11:39:00;8.28;85.40
77592;DHT22;66747;46.884;17.430;2023-01-09T11:41:32;8.28;84.34
77592;DHT22;66747;46.884;17.430;2023-01-09T11:44:02;8.28;84.24
77592;DHT22;66747;46.884;17.430;2023-01-09T11:46:33;8.29;84.63
77592;DHT22;66747;46.884;17.430;2023-01-09T11:49:01;8.29;85.80
77592;DHT22;66747;46.884;17.430;2023-01-09T11:51:31;8.29;85.40
77592;DHT22;66747;46.884;17.430;2023-01-09T11:54:19;8.32;84.54
77592;DHT22;66747;46.884;17.430;2023-01-09T11:56:48;8.31;86.01
77592;DHT22;66747;46.884;17.430;2023-01-09T11:59:18;8.33;85.52
77592;DHT22;66747;46.884;17.430;2023-01-09T12:01:56;8.35;84.56
77592;DHT22;66747;46.884;17.430;2023-01-09T12:04:27;8.35;84.46
77592;DHT22;66747;46.884;17.430;2023-01-09T12:07:20;8.32;84.33
77592;DHT22;66747;46.884;17.430;2023-01-09T12:09:56;8.32;84.59
77592;DHT22;66747;46.884;17.430;2023-01-09T12:12:35;8.35;84.73
77592;DHT22;66747;46.884;17.430;2023-01-09T12:15:17;8.32;85.26
77592;DHT22;66747;46.884;17.430;2023-01-09T12:18:18;8.33;84.86
77592;DHT22;66747;46.884;17.430;2023-01-09T12:21:10;8.33;84.36
77592;DHT22;66747;46.884;17.430;2023-01-09T12:26:53;8.32;85.23
77592;DHT22;66747;46.884;17.430;2023-01-09T12:29:51;8.33;84.82
77592;DHT22;66747;46.884;17.430;2023-01-09T12:32:33;8.33;84.73
77592;DHT22;66747;46.884;17.430;2023-01-09T12:35:15;8.35;84.74
77592;DHT22;66747;46.884;17.430;2023-01-09T12:37:55;8.35;84.27
77592;DHT22;66747;46.884;17.430;2023-01-09T12:40:40;8.35;84.63
77592;DHT22;66747;46.884;17.430;2023-01-09T12:43:16;8.33;84.68
77592;DHT22;66747;46.884;17.430;2023-01-09T12:45:56;8.33;85.18
77592;DHT22;66747;46.884;17.430;2023-01-09T12:48:39;8.33;85.16
77592;DHT22;66747;46.884;17.430;2023-01-09T12:51:26;8.38;85.40
77592;DHT22;66747;46.884;17.430;2023-01-09T12:54:02;8.35;84.55
77592;DHT22;66747;46.884;17.430;2023-01-09T12:56:34;8.35;84.54
77592;DHT22;66747;46.884;17.430;2023-01-09T12:59:16;8.35;85.27
77592;DHT22;66747;46.884;17.430;2023-01-09T13:01:48;8.32;85.84
77592;DHT22;66747;46.884;17.430;2023-01-09T13:04:21;8.33;86.02
77592;DHT22;66747;46.884;17.430;2023-01-09T13:06:53;8.33;86.16
77592;DHT22;66747;46.884;17.430;2023-01-09T13:09:25;8.31;86.01
77592;DHT22;66747;46.884;17.430;2023-01-09T13:12:00;8.32;85.86
77592;DHT22;66747;46.884;17.430;2023-01-09T13:14:38;8.33;85.80
77592;DHT22;66747;46.884;17.430;2023-01-09T13:17:14;8.32;86.12
77592;DHT22;66747;46.884;17.430;2023-01-09T13:19:43;8.31;86.59
77592;DHT22;66747;46.884;17.430;2023-01-09T13:22:13;8.31;86.26
77592;DHT22;66747;46.884;17.430;2023-01-09T13:24:53;8.29;86.23
77592;DHT22;66747;46.884;17.430;2023-01-09T13:27:25;8.31;85.51
77592;DHT22;66747;46.884;17.430;2023-01-09T13:30:02;8.29;86.22
77592;DHT22;66747;46.884;17.430;2023-01-09T13:32:40;8.28;85.25
77592;DHT22;66747;46.884;17.430;2023-01-09T13:35:13;8.29;86.96
77592;DHT22;66747;46.884;17.430;2023-01-09T13:37:42;8.26;87.53
77592;DHT22;66747;46.884;17.430;2023-01-09T13:40:27;8.25;87.80
77592;DHT22;66747;46.884;17.430;2023-01-09T13:42:56;8.28;87.73
77592;DHT22;66747;46.884;17.430;2023-01-09T13:45:27;8.25;88.24
77592;DHT22;66747;46.884;17.430;2023-01-09T13:48:25;8.25;87.79
77592;DHT22;66747;46.884;17.430;2023-01-09T13:53:59;8.26;88.30
77592;DHT22;66747;46.884;17.430;2023-01-09T13:56:26;8.26;88.16
77592;DHT22;66747;46.884;17.430;2023-01-09T13:59:01;8.24;87.34
77592;DHT22;66747;46.884;17.430;2023-01-09T14:01:44;8.22;88.60
77592;DHT22;66747;46.884;17.430;2023-01-09T14:04:36;8.26;87.84
77592;DHT22;66747;46.884;17.430;2023-01-09T14:07:14;8.22;89.01
77592;DHT22;66747;46.884;17.430;2023-01-09T14:09:47;8.24;88.38
77592;DHT22;66747;46.884;17.430;2023-01-09T14:12:17;8.22;88.43
77592;DHT22;66747;46.884;17.430;2023-01-09T14:14:46;8.25;88.80
77592;DHT22;66747;46.884;17.430;2023-01-09T14:17:24;8.24;88.83
77592;DHT22;66747;46.884;17.430;2023-01-09T14:19:55;8.24;89.03
77592;DHT22;66747;46.884;17.430;2023-01-09T14:22:24;8.24;88.94
77592;DHT22;66747;46.884;17.430;2023-01-09T14:24:52;8.26;88.93
77592;DHT22;66747;46.884;17.430;2023-01-09T14:30:38;8.24;89.36
77592;DHT22;66747;46.884;17.430;2023-01-09T14:33:24;8.24;89.45
77592;DHT22;66747;46.884;17.430;2023-01-09T14:36:00;8.24;89.21
77592;DHT22;66747;46.884;17.430;2023-01-09T14:38:31;8.22;89.41
77592;DHT22;66747;46.884;17.430;2023-01-09T14:41:06;8.20;89.41
77592;DHT22;66747;46.884;17.430;2023-01-09T14:43:48;8.18;89.28
77592;DHT22;66747;46.884;17.430;2023-01-09T14:46:18;8.18;89.25
77592;DHT22;66747;46.884;17.430;2023-01-09T14:49:02;8.15;88.90
77592;DHT22;66747;46.884;17.430;2023-01-09T14:51:34;8.12;88.79
77592;DHT22;66747;46.884;17.430;2023-01-09T14:54:17;8.09;88.32
77592;DHT22;66747;46.884;17.430;2023-01-09T14:56:46;8.08;88.39
77592;DHT22;66747;46.884;17.430;2023-01-09T14:59:14;8.04;88.19
77592;DHT22;66747;46.884;17.430;2023-01-09T15:01:43;8.01;88.13
77592;DHT22;66747;46.884;17.430;2023-01-09T15:04:24;8.01;88.04
77592;DHT22;66747;46.884;17.430;2023-01-09T15:06:53;7.98;87.62
77592;DHT22;66747;46.884;17.430;2023-01-09T15:09:23;7.95;87.39
77592;DHT22;66747;46.884;17.430;2023-01-09T15:11:52;7.97;87.48
77592;DHT22;66747;46.884;17.430;2023-01-09T15:14:29;7.94;87.15
77592;DHT22;66747;46.884;17.430;2023-01-09T15:16:57;7.91;87.27
77592;DHT22;66747;46.884;17.430;2023-01-09T15:19:27;7.90;87.13
77592;DHT22;66747;46.884;17.430;2023-01-09T15:21:57;7.90;87.11
77592;DHT22;66747;46.884;17.430;2023-01-09T15:24:26;7.84;87.33
77592;DHT22;66747;46.884;17.430;2023-01-09T15:26:57;7.85;87.28
77592;DHT22;66747;46.884;17.430;2023-01-09T15:29:25;7.83;87.15
77592;DHT22;66747;46.884;17.430;2023-01-09T15:31:56;7.81;87.33
77592;DHT22;66747;46.884;17.430;2023-01-09T15:34:25;7.80;87.17
77592;DHT22;66747;46.884;17.430;2023-01-09T15:36:54;7.78;87.25
77592;DHT22;66747;46.884;17.430;2023-01-09T15:39:23;7.78;87.20
77592;DHT22;66747;46.884;17.430;2023-01-09T15:41:52;7.76;87.28
77592;DHT22;66747;46.884;17.430;2023-01-09T15:47:26;7.78;87.31
77592;DHT22;66747;46.884;17.430;2023-01-09T15:49:54;7.74;87.30
77592;DHT22;66747;46.884;17.430;2023-01-09T15:52:24;7.74;87.37
77592;DHT22;66747;46.884;17.430;2023-01-09T15:54:51;7.73;87.33
77592;DHT22;66747;46.884;17.430;2023-01-09T15:57:36;7.70;87.33
77592;DHT22;66747;46.884;17.430;2023-01-09T16:00:34;7.69;87.32
77592;DHT22;66747;46.884;17.430;2023-01-09T16:03:18;7.69;87.25
77592;DHT22;66747;46.884;17.430;2023-01-09T16:05:49;7.69;87.22
77592;DHT22;66747;46.884;17.430;2023-01-09T16:08:21;7.69;87.18
77592;DHT22;66747;46.884;17.430;2023-01-09T16:10:51;7.66;87.38
77592;DHT22;66747;46.884;17.430;2023-01-09T16:13:21;7.67;87.18